createdAt,value
2022-11-15T00:01:24.593Z,3.25
2022-11-15T00:03:54.529Z,2.88
2022-11-15T00:06:21.566Z,3.28
2022-11-15T00:08:48.586Z,3.05
2022-11-15T00:11:15.607Z,3.05
2022-11-15T00:13:42.701Z,2.75
2022-11-15T00:16:10.470Z,2.85
2022-11-15T00:18:37.449Z,2.70
2022-11-15T00:21:07.505Z,2.70
2022-11-15T00:23:35.384Z,2.90
2022-11-15T00:26:02.638Z,2.95
2022-11-15T00:28:29.649Z,3.45
2022-11-15T00:31:02.742Z,3.40
2022-11-15T00:33:30.114Z,3.05
2022-11-15T00:36:10.483Z,2.88
2022-11-15T00:38:39.428Z,3.05
2022-11-15T00:41:09.786Z,2.92
2022-11-15T00:43:37.758Z,2.67
2022-11-15T00:46:04.942Z,3.22
2022-11-15T00:48:32.684Z,2.88
2022-11-15T00:50:59.815Z,2.83
2022-11-15T00:53:26.965Z,2.88
2022-11-15T00:55:54.169Z,2.83
2022-11-15T00:58:21.260Z,3.05
2022-11-15T01:00:48.433Z,2.83
2022-11-15T01:03:15.474Z,2.50
2022-11-15T01:05:42.608Z,3.13
2022-11-15T01:08:18.813Z,3.42
2022-11-15T01:10:45.906Z,3.08
2022-11-15T01:13:13.035Z,2.80
2022-11-15T01:15:43.668Z,3.40
2022-11-15T01:18:10.986Z,3.30
2022-11-15T01:20:43.021Z,2.80
2022-11-15T01:23:10.564Z,3.85
2022-11-15T01:25:37.599Z,3.28
2022-11-15T01:28:04.695Z,3.47
2022-11-15T01:30:31.766Z,2.80
2022-11-15T01:32:58.725Z,3.20
2022-11-15T01:35:25.866Z,3.05
2022-11-15T01:37:52.957Z,3.88
2022-11-15T01:40:20.028Z,3.60
2022-11-15T01:42:47.044Z,3.13
2022-11-15T01:45:16.788Z,3.08
2022-11-15T01:47:54.026Z,3.17
2022-11-15T01:50:29.248Z,3.25
2022-11-15T01:52:56.854Z,3.05
2022-11-15T01:55:27.663Z,3.25
2022-11-15T01:58:00.154Z,2.80
2022-11-15T02:00:27.277Z,3.42
2022-11-15T02:02:54.650Z,2.55
2022-11-15T02:05:21.983Z,3.15
2022-11-15T02:07:50.297Z,2.53
2022-11-15T02:10:22.906Z,3.10
2022-11-15T02:12:51.109Z,2.72
2022-11-15T02:15:18.608Z,2.28
2022-11-15T02:18:00.804Z,2.35
2022-11-15T02:21:22.458Z,2.45
2022-11-15T02:23:55.111Z,2.95
2022-11-15T02:26:36.993Z,1.73
2022-11-15T02:29:49.154Z,2.00
2022-11-15T02:32:42.553Z,2.40
2022-11-15T02:35:44.296Z,2.10
2022-11-15T02:38:22.236Z,2.30
2022-11-15T02:41:02.331Z,2.65
2022-11-15T02:44:00.387Z,2.50
2022-11-15T02:46:57.065Z,2.78
2022-11-15T02:49:29.516Z,2.20
2022-11-15T02:51:57.418Z,2.20
2022-11-15T02:54:27.814Z,2.60
2022-11-15T02:56:57.560Z,2.40
2022-11-15T02:59:46.358Z,2.10
2022-11-15T03:02:16.465Z,2.45
2022-11-15T03:04:52.087Z,2.88
2022-11-15T03:07:36.492Z,2.35
2022-11-15T03:10:03.485Z,2.55
2022-11-15T03:12:50.451Z,2.72
2022-11-15T03:15:38.103Z,2.33
2022-11-15T03:18:19.336Z,2.22
2022-11-15T03:20:47.252Z,2.22
2022-11-15T03:23:14.862Z,1.88
2022-11-15T03:25:50.049Z,2.10
2022-11-15T03:28:24.302Z,2.40
2022-11-15T03:30:54.927Z,1.80
2022-11-15T03:33:23.366Z,1.90
2022-11-15T03:35:51.540Z,2.00
2022-11-15T03:38:27.264Z,1.92
2022-11-15T03:41:02.926Z,1.85
2022-11-15T03:43:44.929Z,1.73
2022-11-15T03:46:25.739Z,2.53
2022-11-15T03:48:58.268Z,1.92
2022-11-15T03:51:25.778Z,1.60
2022-11-15T03:53:53.185Z,1.92
2022-11-15T03:56:20.358Z,1.70
2022-11-15T03:58:47.568Z,1.80
2022-11-15T04:01:14.600Z,1.70
2022-11-15T04:03:41.689Z,1.70
2022-11-15T04:06:09.203Z,1.67
2022-11-15T04:08:36.310Z,1.85
2022-11-15T04:11:03.329Z,1.67
2022-11-15T04:13:31.059Z,1.90
2022-11-15T04:15:58.267Z,1.60
2022-11-15T04:18:25.602Z,1.65
2022-11-15T04:21:11.146Z,1.95
2022-11-15T04:23:56.673Z,2.38
2022-11-15T04:26:24.469Z,1.90
2022-11-15T04:29:10.414Z,1.70
2022-11-15T04:31:37.853Z,2.00
2022-11-15T04:34:05.488Z,1.77
2022-11-15T04:36:51.354Z,2.30
2022-11-15T04:39:18.554Z,2.92
2022-11-15T04:41:45.599Z,2.20
2022-11-15T04:44:12.652Z,2.58
2022-11-15T04:46:39.717Z,2.30
2022-11-15T04:49:06.708Z,2.30
2022-11-15T04:51:33.808Z,1.95
2022-11-15T04:54:00.943Z,1.90
2022-11-15T04:56:28.015Z,1.50
2022-11-15T04:58:55.021Z,1.90
2022-11-15T05:01:22.050Z,1.77
2022-11-15T05:04:07.600Z,1.85
2022-11-15T05:06:34.612Z,2.00
2022-11-15T05:09:01.658Z,1.70
2022-11-15T05:11:28.745Z,1.65
2022-11-15T05:13:56.254Z,1.50
2022-11-15T05:16:23.848Z,1.58
2022-11-15T05:18:55.345Z,1.50
2022-11-15T05:21:22.913Z,1.45
2022-11-15T05:23:49.982Z,1.30
2022-11-15T05:26:19.510Z,1.48
2022-11-15T05:28:46.877Z,1.70
2022-11-15T05:31:16.505Z,1.60
2022-11-15T05:33:45.581Z,1.25
2022-11-15T05:36:36.099Z,1.48
2022-11-15T05:39:03.378Z,1.42
2022-11-15T05:41:38.477Z,1.20
2022-11-15T05:44:08.301Z,1.30
2022-11-15T05:46:36.719Z,1.55
2022-11-15T05:49:05.615Z,1.38
2022-11-15T05:51:32.742Z,1.88
2022-11-15T05:54:00.137Z,1.60
2022-11-15T05:56:27.403Z,1.30
2022-11-15T05:58:59.523Z,1.40
2022-11-15T06:01:28.069Z,1.50
2022-11-15T06:03:55.335Z,1.25
2022-11-15T06:06:22.380Z,1.63
2022-11-15T06:08:49.406Z,1.65
2022-11-15T06:11:20.390Z,1.80
2022-11-15T06:14:00.868Z,1.52
2022-11-15T06:16:27.945Z,1.50
2022-11-15T06:18:55.007Z,1.70
2022-11-15T06:21:22.180Z,1.40
2022-11-15T06:23:49.271Z,1.80
2022-11-15T06:26:16.422Z,1.52
2022-11-15T06:28:43.433Z,1.60
2022-11-15T06:31:13.062Z,1.50
2022-11-15T06:33:40.920Z,1.60
2022-11-15T06:36:16.119Z,1.38
2022-11-15T06:38:47.749Z,1.50
2022-11-15T06:41:15.600Z,1.92
2022-11-15T06:43:42.750Z,1.75
2022-11-15T06:46:10.449Z,1.45
2022-11-15T06:48:37.700Z,1.73
2022-11-15T06:51:06.088Z,2.15
2022-11-15T06:53:34.091Z,2.13
2022-11-15T06:56:03.244Z,1.90
2022-11-15T06:58:30.605Z,2.15
2022-11-15T07:01:06.907Z,2.40
2022-11-15T07:03:37.296Z,2.40
2022-11-15T07:06:07.518Z,1.67
2022-11-15T07:08:35.992Z,1.85
2022-11-15T07:11:05.517Z,2.47
2022-11-15T07:13:36.779Z,2.40
2022-11-15T07:16:08.917Z,2.10
2022-11-15T07:18:40.243Z,2.38
2022-11-15T07:21:10.845Z,2.22
2022-11-15T07:23:39.426Z,2.15
2022-11-15T07:26:07.021Z,1.85
2022-11-15T07:28:34.476Z,2.13
2022-11-15T07:31:09.824Z,2.13
2022-11-15T07:33:37.420Z,2.40
2022-11-15T07:36:06.708Z,1.80
2022-11-15T07:38:41.069Z,1.60
2022-11-15T07:41:10.241Z,1.90
2022-11-15T07:43:37.405Z,2.00
2022-11-15T07:46:10.811Z,2.15
2022-11-15T07:48:45.298Z,2.17
2022-11-15T07:51:17.237Z,2.58
2022-11-15T07:53:45.418Z,2.25
2022-11-15T07:56:13.470Z,2.10
2022-11-15T07:58:40.685Z,1.83
2022-11-15T08:01:10.345Z,2.00
2022-11-15T08:03:38.272Z,1.80
2022-11-15T08:06:06.108Z,1.95
2022-11-15T08:08:33.201Z,1.88
2022-11-15T08:11:00.717Z,1.85
2022-11-15T08:13:27.841Z,1.77
2022-11-15T08:16:03.033Z,2.13
2022-11-15T08:18:30.244Z,2.00
2022-11-15T08:21:01.154Z,1.80
2022-11-15T08:23:29.112Z,2.30
2022-11-15T08:26:02.416Z,1.55
2022-11-15T08:28:29.899Z,1.50
2022-11-15T08:30:57.195Z,1.95
2022-11-15T08:33:24.633Z,2.13
2022-11-15T08:35:51.745Z,1.75
2022-11-15T08:38:18.810Z,1.88
2022-11-15T08:40:45.858Z,1.70
2022-11-15T08:43:12.955Z,2.22
2022-11-15T08:45:40.019Z,1.92
2022-11-15T08:48:07.215Z,2.03
2022-11-15T08:50:34.374Z,2.22
2022-11-15T08:53:11.540Z,1.98
2022-11-15T08:55:39.416Z,1.90
2022-11-15T08:58:06.648Z,1.80
2022-11-15T09:00:34.722Z,1.98
2022-11-15T09:03:05.984Z,1.85
2022-11-15T09:05:33.316Z,2.15
2022-11-15T09:08:00.842Z,1.98
2022-11-15T09:10:29.218Z,1.98
2022-11-15T09:12:58.472Z,2.28
2022-11-15T09:15:25.685Z,1.85
2022-11-15T09:17:52.664Z,2.03
2022-11-15T09:20:19.782Z,1.65
2022-11-15T09:22:47.091Z,1.60
2022-11-15T09:25:14.170Z,1.88
2022-11-15T09:27:41.228Z,1.90
2022-11-15T09:30:08.671Z,2.10
2022-11-15T09:32:39.228Z,2.15
2022-11-15T09:35:06.974Z,1.52
2022-11-15T09:37:34.196Z,1.63
2022-11-15T09:40:01.211Z,1.80
2022-11-15T09:42:46.497Z,2.05
2022-11-15T09:45:29.978Z,2.25
2022-11-15T09:48:13.319Z,2.40
2022-11-15T09:50:48.064Z,2.67
2022-11-15T09:54:18.690Z,2.42
2022-11-15T09:56:47.528Z,2.50
2022-11-15T09:59:35.549Z,2.15
2022-11-15T10:02:24.596Z,2.13
2022-11-15T10:04:53.135Z,2.35
2022-11-15T10:07:20.163Z,2.30
2022-11-15T10:10:10.750Z,2.60
2022-11-15T10:12:37.828Z,2.60
2022-11-15T10:15:13.204Z,2.40
2022-11-15T10:17:46.605Z,2.35
2022-11-15T10:20:18.319Z,2.42
2022-11-15T10:22:58.048Z,2.10
2022-11-15T10:25:30.834Z,2.13
2022-11-15T10:28:18.540Z,1.87
2022-11-15T10:30:48.586Z,3.70
2022-11-15T10:33:39.517Z,2.65
2022-11-15T10:36:09.639Z,2.88
2022-11-15T10:39:05.743Z,2.78
2022-11-15T10:41:37.503Z,3.38
2022-11-15T10:44:25.492Z,2.63
2022-11-15T10:47:04.389Z,2.65
2022-11-15T10:49:34.059Z,3.65
2022-11-15T10:52:01.050Z,3.65
2022-11-15T10:54:48.478Z,3.72
2022-11-15T10:57:17.992Z,3.92
2022-11-15T10:59:55.835Z,3.03
2022-11-15T11:02:46.249Z,4.65
2022-11-15T11:05:42.311Z,5.38
2022-11-15T11:08:12.675Z,4.50
2022-11-15T11:11:01.374Z,3.53
2022-11-15T11:13:37.451Z,3.47
2022-11-15T11:16:16.601Z,4.10
2022-11-15T11:19:09.162Z,4.70
2022-11-15T11:22:00.513Z,5.40
2022-11-15T11:24:33.817Z,5.60
2022-11-15T11:27:27.088Z,5.95
2022-11-15T11:30:15.580Z,9.40
2022-11-15T11:33:00.755Z,8.48
2022-11-15T11:35:46.216Z,9.73
2022-11-15T11:38:31.428Z,11.85
2022-11-15T11:41:17.189Z,9.45
2022-11-15T11:43:49.773Z,6.28
2022-11-15T11:46:29.135Z,5.38
2022-11-15T11:49:19.370Z,7.70
2022-11-15T11:51:51.540Z,7.55
2022-11-15T11:54:40.069Z,8.13
2022-11-15T11:57:35.401Z,6.32
2022-11-15T12:00:22.303Z,4.88
2022-11-15T12:03:23.490Z,5.05
2022-11-15T12:06:02.348Z,6.88
2022-11-15T12:08:41.534Z,5.88
2022-11-15T12:11:18.734Z,7.00
2022-11-15T12:13:50.597Z,7.60
2022-11-15T12:16:28.985Z,5.22
2022-11-15T12:19:02.203Z,5.05
2022-11-15T12:21:29.148Z,4.78
2022-11-15T12:24:05.587Z,6.00
2022-11-15T12:26:55.975Z,5.30
2022-11-15T12:29:45.535Z,5.28
2022-11-15T12:32:25.937Z,4.18
2022-11-15T12:34:54.208Z,4.28
2022-11-15T12:37:39.446Z,4.50
2022-11-15T12:40:21.156Z,5.30
2022-11-15T12:43:14.054Z,4.95
2022-11-15T12:45:44.067Z,4.75
2022-11-15T12:48:17.288Z,4.85
2022-11-15T12:50:56.013Z,5.40
2022-11-15T12:53:26.167Z,6.10
2022-11-15T12:56:17.933Z,6.55
2022-11-15T12:58:53.861Z,7.78
2022-11-15T13:01:38.917Z,10.60
2022-11-15T13:04:27.583Z,12.68
2022-11-15T13:07:06.330Z,7.07
2022-11-15T13:09:33.365Z,10.60
2022-11-15T13:12:03.061Z,13.02
2022-11-15T13:14:40.626Z,10.13
2022-11-15T13:17:28.355Z,7.25
2022-11-15T13:20:07.624Z,7.90
2022-11-15T13:23:11.338Z,8.07
2022-11-15T13:25:41.211Z,10.02
2022-11-15T13:28:11.213Z,11.07
2022-11-15T13:30:42.672Z,16.33
2022-11-15T13:33:15.915Z,17.42
2022-11-15T13:35:47.974Z,14.73
2022-11-15T13:38:34.332Z,9.25
2022-11-15T13:41:15.657Z,12.30
2022-11-15T13:43:42.709Z,24.40
2022-11-15T13:46:21.416Z,25.65
2022-11-15T13:48:53.925Z,20.88
2022-11-15T13:51:30.233Z,20.20
2022-11-15T13:54:07.854Z,15.13
2022-11-15T13:56:35.563Z,10.40
2022-11-15T13:59:10.905Z,10.38
2022-11-15T14:01:38.190Z,9.65
2022-11-15T14:04:05.444Z,10.27
2022-11-15T14:06:32.949Z,10.55
2022-11-15T14:09:12.426Z,8.15
2022-11-15T14:11:51.355Z,7.90
2022-11-15T14:14:22.090Z,8.25
2022-11-15T14:16:53.380Z,8.10
2022-11-15T14:19:23.171Z,9.82
2022-11-15T14:22:13.089Z,8.60
2022-11-15T14:24:40.709Z,8.25
2022-11-15T14:27:28.461Z,9.32
2022-11-15T14:29:56.417Z,10.05
2022-11-15T14:32:25.129Z,8.98
2022-11-15T14:34:59.661Z,8.20
2022-11-15T14:37:29.311Z,11.15
2022-11-15T14:39:56.624Z,12.32
2022-11-15T14:42:24.675Z,8.60
2022-11-15T14:44:52.503Z,9.05
2022-11-15T14:47:19.930Z,10.18
2022-11-15T14:49:47.307Z,8.48
2022-11-15T14:52:32.594Z,8.80
2022-11-15T14:55:02.595Z,11.40
2022-11-15T14:57:30.910Z,8.70
2022-11-15T14:59:58.174Z,6.95
2022-11-15T15:02:27.975Z,6.70
2022-11-15T15:04:55.509Z,7.30
2022-11-15T15:07:23.449Z,7.03
2022-11-15T15:09:50.573Z,7.18
2022-11-15T15:12:22.545Z,8.30
2022-11-15T15:14:50.974Z,6.95
2022-11-15T15:17:18.760Z,6.78
2022-11-15T15:19:45.745Z,6.38
2022-11-15T15:22:18.506Z,7.25
2022-11-15T15:24:47.005Z,6.57
2022-11-15T15:27:14.379Z,5.70
2022-11-15T15:29:41.949Z,5.55
2022-11-15T15:32:10.206Z,6.70
2022-11-15T15:34:37.380Z,7.80
2022-11-15T15:37:24.980Z,6.28
2022-11-15T15:39:57.790Z,5.07
2022-11-15T15:42:24.918Z,5.15
2022-11-15T15:44:52.628Z,5.95
2022-11-15T15:47:23.700Z,5.85
2022-11-15T15:49:52.000Z,5.30
2022-11-15T15:52:19.548Z,4.97
2022-11-15T15:54:46.546Z,4.57
2022-11-15T15:57:15.347Z,5.88
2022-11-15T15:59:42.397Z,6.75
2022-11-15T16:02:16.200Z,7.63
2022-11-15T16:04:43.208Z,8.10
2022-11-15T16:07:18.930Z,7.15
2022-11-15T16:10:04.354Z,7.78
2022-11-15T16:12:34.684Z,8.65
2022-11-15T16:15:02.821Z,7.10
2022-11-15T16:17:40.903Z,7.10
2022-11-15T16:20:08.369Z,7.57
2022-11-15T16:22:35.486Z,6.40
2022-11-15T16:25:02.852Z,6.53
2022-11-15T16:27:29.886Z,6.90
2022-11-15T16:29:56.874Z,7.07
2022-11-15T16:32:24.625Z,7.05
2022-11-15T16:34:51.684Z,6.07
2022-11-15T16:37:25.144Z,6.07
2022-11-15T16:39:53.956Z,6.90
2022-11-15T16:42:24.169Z,7.05
2022-11-15T16:44:51.200Z,5.90
2022-11-15T16:47:20.299Z,6.70
2022-11-15T16:49:47.810Z,7.10
2022-11-15T16:52:20.155Z,6.85
2022-11-15T16:54:48.295Z,7.35
2022-11-15T16:57:16.887Z,7.43
2022-11-15T16:59:43.835Z,6.60
2022-11-15T17:02:13.842Z,7.30
2022-11-15T17:04:41.189Z,8.48
2022-11-15T17:07:09.174Z,7.20
2022-11-15T17:09:36.267Z,7.45
2022-11-15T17:12:03.252Z,7.85
2022-11-15T17:14:30.309Z,10.77
2022-11-15T17:16:57.447Z,9.52
2022-11-15T17:19:24.484Z,9.00
2022-11-15T17:21:54.681Z,8.63
2022-11-15T17:24:21.696Z,10.07
2022-11-15T17:26:48.750Z,9.80
2022-11-15T17:29:16.140Z,8.98
2022-11-15T17:31:43.160Z,10.55
2022-11-15T17:34:10.148Z,8.02
2022-11-15T17:36:37.317Z,8.50
2022-11-15T17:39:05.451Z,7.30
2022-11-15T17:41:32.583Z,7.07
2022-11-15T17:44:00.659Z,7.47
2022-11-15T17:46:28.780Z,6.72
2022-11-15T17:48:57.382Z,5.90
2022-11-15T17:51:25.057Z,6.45
2022-11-15T17:53:53.310Z,5.72
2022-11-15T17:56:22.507Z,6.45
2022-11-15T17:58:58.007Z,5.88
2022-11-15T18:01:36.061Z,6.18
2022-11-15T18:04:06.258Z,6.88
2022-11-15T18:06:34.856Z,5.93
2022-11-15T18:09:03.105Z,6.45
2022-11-15T18:11:39.551Z,7.85
2022-11-15T18:14:09.268Z,7.63
2022-11-15T18:16:37.798Z,8.50
2022-11-15T18:19:13.504Z,9.25
2022-11-15T18:21:57.641Z,6.63
2022-11-15T18:24:31.381Z,6.30
2022-11-15T18:29:26.707Z,7.00
2022-11-15T18:31:58.161Z,6.95
2022-11-15T18:34:32.497Z,5.53
2022-11-15T18:37:01.032Z,6.55
2022-11-15T18:39:28.014Z,7.55
2022-11-15T18:41:55.064Z,6.82
2022-11-15T18:44:22.163Z,6.72
2022-11-15T18:46:49.496Z,6.22
2022-11-15T18:49:17.323Z,7.20
2022-11-15T18:51:44.918Z,8.45
2022-11-15T18:54:14.695Z,6.60
2022-11-15T18:56:44.416Z,6.63
2022-11-15T18:59:11.665Z,6.28
2022-11-15T19:01:41.014Z,6.18
2022-11-15T19:04:13.170Z,6.38
2022-11-15T19:06:42.527Z,7.22
2022-11-15T19:09:12.955Z,7.40
2022-11-15T19:11:40.471Z,5.82
2022-11-15T19:14:11.384Z,5.88
2022-11-15T19:16:45.190Z,5.90
2022-11-15T19:19:15.303Z,6.25
2022-11-15T19:21:42.896Z,5.65
2022-11-15T19:24:13.433Z,6.18
2022-11-15T19:26:40.625Z,6.38
2022-11-15T19:29:14.300Z,5.65
2022-11-15T19:31:42.215Z,5.57
2022-11-15T19:34:09.645Z,5.15
2022-11-15T19:36:39.666Z,6.15
2022-11-15T19:39:10.234Z,5.47
2022-11-15T19:41:39.776Z,4.80
2022-11-15T19:44:07.158Z,4.20
2022-11-15T19:46:34.612Z,5.70
2022-11-15T19:49:01.713Z,4.45
2022-11-15T19:51:31.250Z,4.63
2022-11-15T19:54:01.637Z,3.92
2022-11-15T19:56:28.707Z,4.85
2022-11-15T19:58:56.867Z,5.40
2022-11-15T20:01:32.017Z,4.70
2022-11-15T20:04:00.596Z,4.60
2022-11-15T20:06:27.757Z,4.07
2022-11-15T20:08:54.873Z,4.72
2022-11-15T20:11:22.303Z,4.53
2022-11-15T20:13:49.989Z,5.20
2022-11-15T20:16:22.923Z,4.90
2022-11-15T20:18:51.152Z,5.00
2022-11-15T20:21:18.223Z,5.03
2022-11-15T20:23:47.326Z,4.63
2022-11-15T20:26:15.480Z,5.35
2022-11-15T20:28:44.276Z,5.57
2022-11-15T20:31:12.451Z,5.35
2022-11-15T20:33:40.012Z,5.93
2022-11-15T20:36:10.631Z,5.70
2022-11-15T20:38:38.126Z,5.30
2022-11-15T20:41:05.351Z,4.55
2022-11-15T20:43:32.540Z,4.10
2022-11-15T20:45:59.780Z,4.13
2022-11-15T20:48:27.482Z,3.60
2022-11-15T20:51:14.890Z,3.67
2022-11-15T20:53:43.230Z,3.28
2022-11-15T20:56:15.878Z,3.35
2022-11-15T20:58:44.940Z,3.03
2022-11-15T21:01:15.428Z,3.03
2022-11-15T21:03:43.136Z,3.30
2022-11-15T21:06:11.559Z,3.30
2022-11-15T21:08:57.331Z,3.90
2022-11-15T21:11:43.380Z,2.80
2022-11-15T21:14:10.574Z,3.00
2022-11-15T21:16:39.100Z,2.95
2022-11-15T21:19:07.147Z,3.30
2022-11-15T21:21:35.987Z,3.10
2022-11-15T21:24:10.220Z,3.95
2022-11-15T21:26:37.984Z,4.13
2022-11-15T21:29:05.420Z,4.20
2022-11-15T21:31:32.643Z,4.55
2022-11-15T21:34:03.375Z,3.55
2022-11-15T21:36:30.990Z,3.70
2022-11-15T21:38:58.130Z,3.50
2022-11-15T21:41:25.266Z,3.25
2022-11-15T21:43:52.379Z,3.60
2022-11-15T21:46:19.439Z,3.47
2022-11-15T21:48:46.509Z,3.40
2022-11-15T21:51:13.752Z,3.72
2022-11-15T21:53:41.078Z,3.13
2022-11-15T21:56:08.842Z,3.38
2022-11-15T21:58:36.663Z,3.50
2022-11-15T22:01:23.360Z,4.82
2022-11-15T22:03:50.962Z,4.07
2022-11-15T22:06:18.514Z,3.72
2022-11-15T22:08:46.617Z,3.42
2022-11-15T22:11:14.717Z,3.05
2022-11-15T22:13:42.392Z,3.40
2022-11-15T22:16:10.278Z,3.33
2022-11-15T22:18:38.409Z,4.32
2022-11-15T22:21:11.076Z,3.45
2022-11-15T22:23:38.721Z,3.75
2022-11-15T22:26:06.522Z,3.70
2022-11-15T22:28:34.155Z,3.42
2022-11-15T22:31:01.607Z,3.45
2022-11-15T22:33:30.326Z,3.72
2022-11-15T22:35:57.901Z,3.40
2022-11-15T22:38:25.542Z,3.42
2022-11-15T22:40:52.966Z,2.95
2022-11-15T22:43:21.811Z,3.55
2022-11-15T22:45:51.511Z,3.17
2022-11-15T22:48:20.845Z,3.70
2022-11-15T22:50:47.986Z,3.50
2022-11-15T22:53:15.514Z,3.83
2022-11-15T22:55:42.984Z,3.47
2022-11-15T22:58:10.735Z,4.00
2022-11-15T23:00:37.852Z,3.33
2022-11-15T23:03:05.047Z,2.92
2022-11-15T23:05:32.707Z,3.60
2022-11-15T23:07:59.720Z,4.05
2022-11-15T23:10:45.073Z,4.28
2022-11-15T23:13:16.542Z,4.00
2022-11-15T23:16:04.321Z,3.70
2022-11-15T23:18:41.978Z,3.58
2022-11-15T23:21:10.452Z,3.55
2022-11-15T23:23:37.502Z,3.10
2022-11-15T23:26:05.340Z,3.53
2022-11-15T23:28:34.054Z,3.13
2022-11-15T23:31:26.782Z,3.42
2022-11-15T23:33:59.976Z,3.28
2022-11-15T23:36:28.481Z,3.13
2022-11-15T23:38:56.121Z,3.67
2022-11-15T23:41:26.326Z,3.03
2022-11-15T23:43:53.430Z,3.55
2022-11-15T23:46:20.435Z,2.67
2022-11-15T23:48:47.627Z,2.10
2022-11-15T23:51:15.282Z,2.83
2022-11-15T23:53:43.754Z,2.72
2022-11-15T23:56:13.596Z,3.03
2022-11-15T23:58:41.692Z,2.90
